»·PEaware :: ASA38 KSAN-KLAS

ASA38 :: KSAN-KLAS

FLIGHT INFORMATION

Flight Status: Arrived
Operator:
Alaska Airlines
More flights by this operator :: More flights under this callsign
Pilot: Steve F. (26981)
Aircraft: BOEING 737-800
(B738)
More flights by this aircraft type
Origin: KSAN San Diego Intl-Lindbergh
United States
Destination: KLAS McCarran Intl
United States
More flights between these airports :: More routes between these airports
Route: +PADRZ2 CHKNN SEBBY YELAH MISEN KEPEC6
File this flight plan on PilotEdge
Remarks:
Altitude:
(Current/Filed)
29,000ft
Speed:
(Current/Filed)
430kts
Departed: 06-Sep-20 10:02 AM
Arrived: 06-Sep-20 10:56 AM
Distance/Time
Traveled:
225nm/0:54
Distance/Time
To Go:
Arrived

Flight Plot

Page will automatically refresh every two minutes.

Flight plan parsing failed; only flown route is shown


Map Options




Map Legend


Flown Route
Filed Route
Departure Airport
Arrival Airport
Navaid (VOR, NDB)
Fix

Horizontal Profiles

Position Reports

Time Latitude Longitude Heading Altitude Ground
Speed
06-Sep-20 09:45 32.733678 -117.198925 143 23ft 0kts
06-Sep-20 09:46 32.733678 -117.198925 143 23ft 0kts
06-Sep-20 09:47 32.733678 -117.198925 143 23ft 0kts
06-Sep-20 09:48 32.733678 -117.198925 143 23ft 0kts
06-Sep-20 09:49 32.733678 -117.198925 143 23ft 0kts
06-Sep-20 09:50 32.733678 -117.198925 143 23ft 0kts
06-Sep-20 09:51 32.733678 -117.198925 143 23ft 0kts
06-Sep-20 09:52 32.733678 -117.198925 143 23ft 0kts
06-Sep-20 09:53 32.733720 -117.198962 143 23ft 1kts
06-Sep-20 09:54 32.733961 -117.199423 99 23ft 0kts
06-Sep-20 09:55 32.733960 -117.199422 99 23ft 0kts
06-Sep-20 09:56 32.734405 -117.198728 43 23ft 9kts
06-Sep-20 09:57 32.733568 -117.193649 105 23ft 19kts
06-Sep-20 09:58 32.731877 -117.186478 105 23ft 23kts
06-Sep-20 09:59 32.730021 -117.178647 105 23ft 20kts
06-Sep-20 10:00 32.730373 -117.176510 285 23ft 25kts
06-Sep-20 10:01 32.741203 -117.218964 291 1045ft 200kts
06-Sep-20 10:02 32.781135 -117.283211 307 3130ft 267kts
06-Sep-20 10:03 32.825184 -117.359090 308 5815ft 287kts
06-Sep-20 10:04 32.875281 -117.435761 307 8513ft 300kts
06-Sep-20 10:05 32.927441 -117.516851 308 11105ft 316kts
06-Sep-20 10:06 32.985819 -117.607657 308 12433ft 380kts
06-Sep-20 10:07 33.053002 -117.712419 310 14438ft 407kts
06-Sep-20 10:08 33.137777 -117.804959 320 16834ft 419kts
06-Sep-20 10:09 33.228582 -117.895956 321 19047ft 431kts
06-Sep-20 10:10 33.322535 -117.987595 321 21121ft 440kts
06-Sep-20 10:11 33.418800 -118.081511 321 22898ft 449kts
06-Sep-20 10:12 33.516282 -118.177387 321 24422ft 458kts
06-Sep-20 10:13 33.622955 -118.262800 336 25790ft 464kts
06-Sep-20 10:14 33.745422 -118.292860 15 27400ft 456kts
06-Sep-20 10:15 33.840389 -118.198285 52 28914ft 452kts
06-Sep-20 10:16 33.913660 -118.075424 53 28940ft 450kts
06-Sep-20 10:17 33.986504 -117.952612 54 28951ft 450kts
06-Sep-20 10:18 34.058742 -117.829728 54 28980ft 450kts
06-Sep-20 10:19 34.134524 -117.709434 49 29022ft 449kts
06-Sep-20 10:20 34.214707 -117.593427 50 29047ft 449kts
06-Sep-20 10:21 34.294194 -117.476893 50 29073ft 449kts
06-Sep-20 10:22 34.373753 -117.360273 50 29112ft 449kts
06-Sep-20 10:23 34.452946 -117.243512 50 29156ft 449kts
06-Sep-20 10:24 34.531807 -117.126657 51 29232ft 448kts
06-Sep-20 10:25 34.610715 -117.009302 51 29269ft 448kts
06-Sep-20 10:26 34.689574 -116.891982 51 29238ft 448kts
06-Sep-20 10:27 34.768222 -116.774094 51 29171ft 448kts
06-Sep-20 10:28 34.847226 -116.656894 47 27649ft 449kts
06-Sep-20 10:29 34.943107 -116.558633 39 25651ft 451kts
06-Sep-20 10:30 35.039922 -116.464702 39 24206ft 438kts
06-Sep-20 10:31 35.132461 -116.368463 45 24147ft 437kts
06-Sep-20 10:32 35.216413 -116.261716 47 22474ft 428kts
06-Sep-20 10:33 35.297908 -116.158490 47 20087ft 415kts
06-Sep-20 10:34 35.377169 -116.058575 46 17741ft 403kts
06-Sep-20 10:35 35.454267 -115.961341 46 15494ft 392kts
06-Sep-20 10:36 35.529363 -115.866435 46 13530ft 376kts
06-Sep-20 10:37 35.598017 -115.778968 46 13006ft 331kts
06-Sep-20 10:38 35.658663 -115.701552 47 13012ft 309kts
06-Sep-20 10:39 35.719131 -115.624303 46 13019ft 313kts
06-Sep-20 10:40 35.792519 -115.573159 6 13027ft 315kts
06-Sep-20 10:41 35.880269 -115.568482 2 13028ft 316kts
06-Sep-20 10:42 35.966323 -115.555033 32 12725ft 309kts
06-Sep-20 10:43 36.003625 -115.464341 72 11479ft 304kts
06-Sep-20 10:44 36.028899 -115.368167 85 10911ft 284kts
06-Sep-20 10:45 36.023682 -115.271405 94 9780ft 279kts
06-Sep-20 10:46 36.016803 -115.176761 92 8773ft 274kts
06-Sep-20 10:47 36.010590 -115.085301 92 8038ft 258kts
06-Sep-20 10:48 36.006114 -115.001299 90 7339ft 233kts
06-Sep-20 10:50 36.013052 -114.929093 44 6349ft 207kts
06-Sep-20 10:51 36.063040 -114.929476 318 5063ft 197kts
06-Sep-20 10:52 36.074240 -114.990793 266 4054ft 178kts
06-Sep-20 10:53 36.073755 -115.049358 270 3372ft 162kts
06-Sep-20 10:54 36.073657 -115.104325 269 2528ft 161kts
06-Sep-20 10:55 36.073651 -115.148694 270 2189ft 54kts
06-Sep-20 10:56 36.074578 -115.155642 359 2189ft 0kts
06-Sep-20 10:57 36.075947 -115.156987 312 2189ft 20kts
06-Sep-20 10:58 36.077915 -115.157990 72 2189ft 3kts
06-Sep-20 10:59 36.078714 -115.151316 93 2189ft 31kts
06-Sep-20 11:00 36.080059 -115.147849 61 2189ft 10kts
06-Sep-20 11:01 36.080274 -115.147340 65 2189ft 0kts

Navigation Log

Ident Type
Flight plan parsing failed, navigation log unavailable